createdAt,value
2023-07-25T00:00:29.207Z,0.00
2023-07-25T00:01:30.509Z,0.00
2023-07-25T00:02:30.300Z,0.00
2023-07-25T00:03:30.187Z,0.00
2023-07-25T00:04:30.140Z,0.00
2023-07-25T00:05:30.101Z,0.00
2023-07-25T00:06:30.122Z,0.00
2023-07-25T00:07:30.107Z,0.00
2023-07-25T00:08:30.060Z,0.00
2023-07-25T00:09:30.096Z,0.00
2023-07-25T00:10:30.085Z,0.00
2023-07-25T00:11:30.397Z,0.00
2023-07-25T00:12:30.052Z,0.00
2023-07-25T00:13:30.041Z,0.00
2023-07-25T00:14:30.073Z,0.00
2023-07-25T00:15:30.008Z,0.00
2023-07-25T00:16:30.048Z,0.00
2023-07-25T00:17:30.026Z,0.00
2023-07-25T00:18:29.977Z,0.00
2023-07-25T00:19:29.998Z,0.00
2023-07-25T00:20:29.969Z,0.00
2023-07-25T00:21:30.379Z,0.00
2023-07-25T00:22:29.944Z,0.00
2023-07-25T00:23:29.912Z,0.00
2023-07-25T00:24:29.979Z,0.00
2023-07-25T00:25:29.959Z,0.00
2023-07-25T00:26:29.880Z,0.00
2023-07-25T00:27:29.878Z,0.00
2023-07-25T00:28:29.890Z,0.00
2023-07-25T00:29:29.870Z,0.00
2023-07-25T00:30:29.836Z,0.00
2023-07-25T00:31:30.092Z,0.00
2023-07-25T00:32:29.856Z,0.00
2023-07-25T00:33:29.812Z,0.00
2023-07-25T00:34:29.833Z,0.00
2023-07-25T00:35:29.793Z,0.00
2023-07-25T00:36:29.769Z,0.00
2023-07-25T00:37:29.773Z,0.00
2023-07-25T00:38:29.782Z,0.00
2023-07-25T00:39:29.727Z,0.00
2023-07-25T00:40:29.764Z,0.00
2023-07-25T00:41:30.146Z,0.00
2023-07-25T00:42:29.746Z,0.00
2023-07-25T00:43:29.687Z,0.00
2023-07-25T00:44:29.680Z,0.00
2023-07-25T00:45:29.680Z,0.00
2023-07-25T00:46:29.693Z,0.00
2023-07-25T00:47:29.668Z,0.00
2023-07-25T00:48:29.646Z,0.00
2023-07-25T00:49:29.633Z,0.00
2023-07-25T00:50:29.652Z,0.00
2023-07-25T00:51:30.042Z,0.00
2023-07-25T00:52:29.625Z,0.00
2023-07-25T00:53:29.602Z,0.00
2023-07-25T00:54:29.551Z,0.00
2023-07-25T00:55:29.578Z,0.00
2023-07-25T00:56:29.557Z,0.00
2023-07-25T00:57:29.521Z,0.00
2023-07-25T00:58:29.539Z,0.00
2023-07-25T00:59:29.511Z,0.00
2023-07-25T01:00:29.551Z,0.00
2023-07-25T01:01:29.957Z,0.00
2023-07-25T01:02:29.542Z,0.00
2023-07-25T01:03:29.586Z,0.00
2023-07-25T01:04:29.460Z,0.00
2023-07-25T01:05:29.468Z,0.00
2023-07-25T01:06:29.432Z,0.00
2023-07-25T01:07:29.448Z,0.00
2023-07-25T01:08:29.418Z,0.00
2023-07-25T01:09:29.393Z,0.00
2023-07-25T01:10:29.390Z,0.00
2023-07-25T01:11:29.556Z,0.00
2023-07-25T01:12:29.410Z,0.00
2023-07-25T01:13:29.371Z,0.00
2023-07-25T01:14:29.363Z,0.00
2023-07-25T01:15:29.330Z,0.00
2023-07-25T01:16:29.405Z,0.00
2023-07-25T01:17:29.335Z,0.00
2023-07-25T01:18:29.322Z,0.00
2023-07-25T01:19:29.327Z,0.00
2023-07-25T01:20:29.411Z,0.00
2023-07-25T01:21:29.568Z,0.00
2023-07-25T01:22:29.368Z,0.00
2023-07-25T01:23:29.239Z,0.00
2023-07-25T01:24:32.262Z,0.00
2023-07-25T01:25:29.235Z,0.00
2023-07-25T01:26:29.211Z,0.00
2023-07-25T01:27:29.237Z,0.00
2023-07-25T01:28:29.190Z,0.00
2023-07-25T01:29:29.189Z,0.00
2023-07-25T01:30:29.260Z,0.00
2023-07-25T01:31:29.645Z,0.00
2023-07-25T01:32:29.202Z,0.00
2023-07-25T01:33:29.158Z,0.00
2023-07-25T01:34:29.202Z,0.00
2023-07-25T01:35:29.187Z,0.00
2023-07-25T01:36:29.115Z,0.00
2023-07-25T01:37:29.094Z,0.00
2023-07-25T01:38:29.109Z,0.00
2023-07-25T01:39:29.076Z,0.00
2023-07-25T01:40:29.058Z,0.00
2023-07-25T01:41:29.431Z,0.00
2023-07-25T01:42:29.035Z,0.00
2023-07-25T01:43:29.091Z,0.00
2023-07-25T01:44:29.020Z,0.00
2023-07-25T01:45:29.058Z,0.00
2023-07-25T01:46:28.997Z,0.00
2023-07-25T01:47:29.018Z,0.00
2023-07-25T01:48:29.035Z,0.00
2023-07-25T01:49:29.017Z,0.00
2023-07-25T01:50:28.998Z,0.00
2023-07-25T01:51:29.182Z,0.00
2023-07-25T01:52:28.959Z,0.00
2023-07-25T01:53:28.947Z,0.00
2023-07-25T01:54:28.954Z,0.00
2023-07-25T01:55:28.913Z,0.00
2023-07-25T01:56:28.913Z,0.00
2023-07-25T01:57:28.922Z,0.00
2023-07-25T01:58:28.869Z,0.00
2023-07-25T01:59:28.885Z,0.00
2023-07-25T02:00:28.879Z,0.00
2023-07-25T02:01:28.910Z,0.00
2023-07-25T02:02:28.894Z,0.00
2023-07-25T02:03:28.892Z,0.00
2023-07-25T02:04:28.832Z,0.00
2023-07-25T02:05:28.828Z,0.00
2023-07-25T02:06:28.780Z,0.00
2023-07-25T02:07:28.790Z,0.00
2023-07-25T02:08:28.765Z,0.00
2023-07-25T02:09:28.736Z,0.00
2023-07-25T02:10:28.769Z,0.00
2023-07-25T02:11:29.057Z,0.00
2023-07-25T02:12:28.724Z,0.00
2023-07-25T02:13:28.716Z,0.00
2023-07-25T02:14:28.687Z,0.00
2023-07-25T02:15:28.697Z,0.00
2023-07-25T02:16:28.744Z,0.00
2023-07-25T02:17:28.769Z,0.00
2023-07-25T02:18:28.652Z,0.00
2023-07-25T02:19:28.662Z,0.00
2023-07-25T02:20:28.656Z,0.00
2023-07-25T02:21:28.991Z,0.00
2023-07-25T02:22:28.665Z,0.00
2023-07-25T02:23:28.616Z,0.00
2023-07-25T02:24:28.598Z,0.00
2023-07-25T02:25:28.599Z,0.00
2023-07-25T02:26:28.569Z,0.00
2023-07-25T02:27:28.573Z,0.00
2023-07-25T02:28:28.585Z,0.00
2023-07-25T02:29:28.583Z,0.00
2023-07-25T02:30:28.530Z,0.00
2023-07-25T02:31:28.501Z,0.00
2023-07-25T02:32:28.547Z,0.00
2023-07-25T02:33:28.506Z,0.00
2023-07-25T02:34:28.505Z,0.00
2023-07-25T02:35:28.487Z,0.00
2023-07-25T02:36:28.484Z,0.00
2023-07-25T02:37:28.523Z,0.00
2023-07-25T02:38:28.419Z,1.00
2023-07-25T02:39:28.416Z,1.00
2023-07-25T02:40:28.418Z,1.00
2023-07-25T02:41:28.402Z,1.00
2023-07-25T02:42:28.360Z,1.00
2023-07-25T02:43:28.349Z,1.00
2023-07-25T02:44:28.341Z,2.00
2023-07-25T02:45:28.339Z,2.00
2023-07-25T02:46:28.327Z,3.00
2023-07-25T02:47:28.328Z,3.00
2023-07-25T02:48:28.302Z,3.00
2023-07-25T02:49:28.293Z,3.00
2023-07-25T02:50:28.258Z,4.00
2023-07-25T02:51:28.282Z,5.00
2023-07-25T02:52:28.256Z,4.00
2023-07-25T02:53:28.257Z,6.00
2023-07-25T02:54:28.218Z,10.00
2023-07-25T02:55:28.230Z,11.00
2023-07-25T02:56:28.248Z,10.00
2023-07-25T02:57:28.190Z,10.00
2023-07-25T02:58:28.193Z,12.00
2023-07-25T02:59:28.165Z,16.00
2023-07-25T03:00:28.213Z,17.00
2023-07-25T03:01:28.171Z,19.00
2023-07-25T03:02:28.558Z,23.00
2023-07-25T03:03:28.175Z,17.00
2023-07-25T03:04:28.159Z,23.00
2023-07-25T03:05:28.118Z,28.00
2023-07-25T03:06:28.126Z,29.00
2023-07-25T03:07:28.125Z,31.00
2023-07-25T03:08:28.087Z,36.00
2023-07-25T03:09:28.037Z,46.00
2023-07-25T03:10:28.071Z,43.00
2023-07-25T03:11:28.047Z,51.00
2023-07-25T03:12:28.060Z,76.00
2023-07-25T03:13:27.998Z,74.00
2023-07-25T03:14:27.994Z,68.00
2023-07-25T03:15:28.007Z,84.00
2023-07-25T03:16:28.023Z,103.00
2023-07-25T03:17:28.010Z,118.00
2023-07-25T03:18:27.974Z,133.00
2023-07-25T03:19:27.957Z,130.00
2023-07-25T03:20:27.933Z,170.00
2023-07-25T03:21:27.928Z,139.00
2023-07-25T03:22:27.933Z,198.00
2023-07-25T03:23:27.912Z,197.00
2023-07-25T03:24:27.913Z,218.00
2023-07-25T03:25:27.912Z,245.00
2023-07-25T03:26:27.912Z,248.00
2023-07-25T03:27:27.897Z,275.00
2023-07-25T03:28:27.854Z,293.00
2023-07-25T03:29:27.841Z,313.00
2023-07-25T03:30:27.869Z,334.00
2023-07-25T03:31:27.842Z,355.00
2023-07-25T03:32:27.837Z,377.00
2023-07-25T03:33:27.803Z,393.00
2023-07-25T03:34:27.784Z,421.00
2023-07-25T03:35:27.802Z,444.00
2023-07-25T03:36:27.781Z,475.00
2023-07-25T03:37:27.757Z,497.00
2023-07-25T03:38:27.747Z,528.00
2023-07-25T03:39:27.765Z,540.00
2023-07-25T03:40:27.722Z,568.00
2023-07-25T03:41:27.718Z,601.00
2023-07-25T03:42:27.728Z,630.00
2023-07-25T03:43:27.705Z,652.00
2023-07-25T03:44:27.665Z,664.00
2023-07-25T03:45:27.666Z,711.00
2023-07-25T03:46:27.711Z,717.00
2023-07-25T03:47:27.716Z,706.00
2023-07-25T03:48:27.644Z,464.00
2023-07-25T03:49:27.603Z,447.00
2023-07-25T03:50:27.623Z,601.00
2023-07-25T03:51:27.652Z,560.00
2023-07-25T03:52:27.596Z,692.00
2023-07-25T03:53:27.607Z,853.00
2023-07-25T03:54:27.582Z,855.00
2023-07-25T03:55:27.559Z,946.00
2023-07-25T03:56:27.553Z,935.00
2023-07-25T03:57:27.539Z,985.00
2023-07-25T03:58:27.563Z,1098.00
2023-07-25T03:59:27.527Z,1192.00
2023-07-25T04:00:27.554Z,1270.00
2023-07-25T04:01:27.521Z,1296.00
2023-07-25T04:02:27.551Z,1348.00
2023-07-25T04:03:27.784Z,1442.00
2023-07-25T04:04:27.550Z,1391.00
2023-07-25T04:05:27.455Z,1505.00
2023-07-25T04:06:27.434Z,1560.00
2023-07-25T04:07:27.423Z,1603.00
2023-07-25T04:08:27.475Z,1707.00
2023-07-25T04:09:27.422Z,1713.00
2023-07-25T04:10:27.385Z,1816.00
2023-07-25T04:11:27.399Z,1709.00
2023-07-25T04:12:27.388Z,2528.00
2023-07-25T04:13:27.348Z,932.00
2023-07-25T04:14:27.381Z,3235.00
2023-07-25T04:15:27.339Z,688.00
2023-07-25T04:16:27.413Z,3108.00
2023-07-25T04:17:27.335Z,1236.00
2023-07-25T04:18:27.331Z,768.00
2023-07-25T04:19:27.293Z,2957.00
2023-07-25T04:20:27.313Z,1094.00
2023-07-25T04:21:27.294Z,3351.00
2023-07-25T04:22:27.254Z,2103.00
2023-07-25T04:23:27.266Z,1993.00
2023-07-25T04:24:27.300Z,1987.00
2023-07-25T04:25:27.273Z,1987.00
2023-07-25T04:26:27.229Z,1700.00
2023-07-25T04:27:27.199Z,1619.00
2023-07-25T04:28:28.647Z,2052.00
2023-07-25T04:29:27.206Z,2142.00
2023-07-25T04:30:27.185Z,1757.00
2023-07-25T04:31:27.186Z,1463.00
2023-07-25T04:32:27.211Z,1102.00
2023-07-25T04:33:27.153Z,4960.00
2023-07-25T04:34:27.150Z,2983.00
2023-07-25T04:35:27.172Z,2614.00
2023-07-25T04:36:27.130Z,2460.00
2023-07-25T04:37:27.114Z,2204.00
2023-07-25T04:38:27.098Z,1834.00
2023-07-25T04:39:27.116Z,1887.00
2023-07-25T04:40:27.065Z,2502.00
2023-07-25T04:41:27.065Z,2978.00
2023-07-25T04:42:27.081Z,2129.00
2023-07-25T04:43:27.061Z,2372.00
2023-07-25T04:44:27.036Z,1566.00
2023-07-25T04:45:27.058Z,4651.00
2023-07-25T04:46:27.043Z,2502.00
2023-07-25T04:47:27.035Z,2506.00
2023-07-25T04:48:26.990Z,4055.00
2023-07-25T04:49:26.989Z,3374.00
2023-07-25T04:50:26.996Z,3387.00
2023-07-25T04:51:26.969Z,3289.00
2023-07-25T04:52:26.975Z,3329.00
2023-07-25T04:53:26.990Z,3340.00
2023-07-25T04:54:26.910Z,2996.00
2023-07-25T04:55:26.952Z,3897.00
2023-07-25T04:56:26.926Z,3256.00
2023-07-25T04:57:26.888Z,3188.00
2023-07-25T04:58:26.914Z,3349.00
2023-07-25T04:59:26.880Z,4169.00
2023-07-25T05:00:29.815Z,3571.00
2023-07-25T05:01:26.909Z,3507.00
2023-07-25T05:02:26.901Z,4959.00
2023-07-25T05:03:27.011Z,2493.00
2023-07-25T05:04:26.854Z,4928.00
2023-07-25T05:05:26.805Z,2764.00
2023-07-25T05:06:26.787Z,2525.00
2023-07-25T05:07:26.802Z,5043.00
2023-07-25T05:08:26.762Z,3400.00
2023-07-25T05:09:26.814Z,2214.00
2023-07-25T05:10:26.760Z,3082.00
2023-07-25T05:11:26.747Z,1739.00
2023-07-25T05:12:26.752Z,6050.00
2023-07-25T05:13:26.750Z,2986.00
2023-07-25T05:14:26.704Z,4302.00
2023-07-25T05:15:26.699Z,2713.00
2023-07-25T05:16:26.729Z,4111.00
2023-07-25T05:17:26.773Z,2769.00
2023-07-25T05:18:26.708Z,4014.00
2023-07-25T05:19:26.658Z,3725.00
2023-07-25T05:20:26.646Z,3751.00
2023-07-25T05:21:26.622Z,4483.00
2023-07-25T05:22:26.613Z,2994.00
2023-07-25T05:23:26.640Z,3471.00
2023-07-25T05:24:26.661Z,3786.00
2023-07-25T05:25:26.582Z,6057.00
2023-07-25T05:26:26.601Z,3884.00
2023-07-25T05:27:26.640Z,3780.00
2023-07-25T05:28:26.559Z,3954.00
2023-07-25T05:29:26.555Z,3340.00
2023-07-25T05:30:26.548Z,2003.00
2023-07-25T05:31:26.726Z,6757.00
2023-07-25T05:32:26.624Z,6852.00
2023-07-25T05:33:26.579Z,4009.00
2023-07-25T05:34:26.542Z,5144.00
2023-07-25T05:35:26.564Z,3690.00
2023-07-25T05:36:26.513Z,2783.00
2023-07-25T05:37:26.487Z,15613.00
2023-07-25T05:38:26.458Z,3382.00
2023-07-25T05:39:26.459Z,20131.00
2023-07-25T05:40:26.469Z,12176.00
2023-07-25T05:41:26.458Z,14618.00
2023-07-25T05:42:26.441Z,2697.00
2023-07-25T05:43:26.431Z,9264.00
2023-07-25T05:44:26.439Z,11729.00
2023-07-25T05:45:26.420Z,13018.00
2023-07-25T05:46:26.367Z,12745.00
2023-07-25T05:47:26.377Z,20595.00
2023-07-25T05:48:26.342Z,4217.00
2023-07-25T05:49:26.355Z,14567.00
2023-07-25T05:50:26.365Z,5289.00
2023-07-25T05:51:26.311Z,2274.00
2023-07-25T05:52:26.304Z,5035.00
2023-07-25T05:53:26.277Z,6151.00
2023-07-25T05:54:26.279Z,5791.00
2023-07-25T05:55:26.274Z,5116.00
2023-07-25T05:56:26.261Z,4436.00
2023-07-25T05:57:26.278Z,3079.00
2023-07-25T05:58:32.376Z,4325.00
2023-07-25T05:59:26.230Z,6171.00
2023-07-25T06:00:26.208Z,5313.00
2023-07-25T06:01:26.213Z,6299.00
2023-07-25T06:02:26.190Z,5341.00
2023-07-25T06:03:26.238Z,4600.00
2023-07-25T06:04:26.167Z,4662.00
2023-07-25T06:05:26.163Z,4739.00
2023-07-25T06:06:26.161Z,3601.00
2023-07-25T06:07:26.116Z,3305.00
2023-07-25T06:08:26.104Z,5018.00
2023-07-25T06:09:26.117Z,4078.00
2023-07-25T06:10:26.109Z,4929.00
2023-07-25T06:11:26.083Z,4133.00
2023-07-25T06:12:26.090Z,4444.00
2023-07-25T06:13:26.110Z,5004.00
2023-07-25T06:14:26.045Z,6324.00
2023-07-25T06:15:26.070Z,6232.00
2023-07-25T06:16:26.196Z,6449.00
2023-07-25T06:17:26.075Z,5788.00
2023-07-25T06:18:26.034Z,4562.00
2023-07-25T06:19:26.000Z,5068.00
2023-07-25T06:20:26.006Z,6027.00
2023-07-25T06:21:25.973Z,5497.00
2023-07-25T06:22:25.961Z,6358.00
2023-07-25T06:23:25.964Z,5423.00
2023-07-25T06:24:25.965Z,5766.00
2023-07-25T06:25:25.922Z,5040.00
2023-07-25T06:26:25.937Z,4313.00
2023-07-25T06:27:26.918Z,3740.00
2023-07-25T06:28:25.909Z,3192.00
2023-07-25T06:29:25.876Z,3091.00
2023-07-25T06:30:25.879Z,4816.00
2023-07-25T06:31:25.919Z,6669.00
2023-07-25T06:32:25.909Z,7476.00
2023-07-25T06:33:25.871Z,5817.00
2023-07-25T06:34:25.833Z,4454.00
2023-07-25T06:35:25.829Z,4354.00
2023-07-25T06:36:25.813Z,5029.00
2023-07-25T06:37:25.794Z,4841.00
2023-07-25T06:38:25.790Z,5608.00
2023-07-25T06:39:25.799Z,7832.00
2023-07-25T06:40:25.764Z,5780.00
2023-07-25T06:41:25.758Z,5157.00
2023-07-25T06:42:25.765Z,4807.00
2023-07-25T06:43:25.730Z,5088.00
2023-07-25T06:44:25.722Z,3801.00
2023-07-25T06:45:25.743Z,2013.00
2023-07-25T06:46:25.720Z,3663.00
2023-07-25T06:47:25.708Z,5995.00
2023-07-25T06:48:25.690Z,6839.00
2023-07-25T06:49:25.687Z,5711.00
2023-07-25T06:50:25.663Z,4804.00
2023-07-25T06:51:25.650Z,5077.00
2023-07-25T06:52:25.638Z,6366.00
2023-07-25T06:53:25.640Z,6322.00
2023-07-25T06:54:25.612Z,5395.00
2023-07-25T06:55:25.620Z,4103.00
2023-07-25T06:56:25.611Z,3384.00
2023-07-25T06:57:25.585Z,3376.00
2023-07-25T06:58:25.570Z,4885.00
2023-07-25T06:59:25.581Z,6721.00
2023-07-25T07:00:25.547Z,8157.00
2023-07-25T07:01:25.528Z,8068.00
2023-07-25T07:02:25.569Z,7160.00
2023-07-25T07:03:25.532Z,5628.00
2023-07-25T07:04:25.515Z,4638.00
2023-07-25T07:05:30.489Z,3666.00
2023-07-25T07:06:25.498Z,5336.00
2023-07-25T07:07:25.463Z,5441.00
2023-07-25T07:08:25.462Z,6027.00
2023-07-25T07:09:25.443Z,6449.00
2023-07-25T07:10:25.432Z,4459.00
2023-07-25T07:11:25.456Z,4485.00
2023-07-25T07:12:25.419Z,6203.00
2023-07-25T07:13:25.427Z,5144.00
2023-07-25T07:14:25.394Z,5158.00
2023-07-25T07:15:25.382Z,5883.00
2023-07-25T07:16:25.417Z,5266.00
2023-07-25T07:17:25.389Z,4665.00
2023-07-25T07:18:25.358Z,6015.00
2023-07-25T07:19:25.350Z,6473.00
2023-07-25T07:20:25.336Z,5020.00
2023-07-25T07:21:25.328Z,5156.00
2023-07-25T07:22:25.338Z,4763.00
2023-07-25T07:23:25.285Z,6445.00
2023-07-25T07:24:25.335Z,7671.00
2023-07-25T07:25:25.267Z,7688.00
2023-07-25T07:26:25.269Z,8383.00
2023-07-25T07:27:25.258Z,8529.00
2023-07-25T07:28:25.288Z,8948.00
2023-07-25T07:29:25.244Z,9687.00
2023-07-25T07:30:25.234Z,8975.00
2023-07-25T07:31:25.229Z,6582.00
2023-07-25T07:32:25.298Z,6580.00
2023-07-25T07:33:25.202Z,6107.00
2023-07-25T07:34:25.179Z,6124.00
2023-07-25T07:35:25.172Z,5697.00
2023-07-25T07:36:25.173Z,4524.00
2023-07-25T07:37:25.236Z,4855.00
2023-07-25T07:38:25.149Z,5705.00
2023-07-25T07:39:25.144Z,5837.00
2023-07-25T07:40:25.158Z,5699.00
2023-07-25T07:41:25.093Z,7053.00
2023-07-25T07:42:25.098Z,7467.00
2023-07-25T07:43:25.169Z,7068.00
2023-07-25T07:44:25.789Z,7215.00
2023-07-25T07:45:25.102Z,7103.00
2023-07-25T07:46:25.055Z,6401.00
2023-07-25T07:47:25.093Z,8905.00
2023-07-25T07:48:25.041Z,9140.00
2023-07-25T07:49:25.037Z,8599.00
2023-07-25T07:50:25.063Z,6985.00
2023-07-25T07:51:24.998Z,6810.00
2023-07-25T07:52:33.173Z,6119.00
2023-07-25T07:53:25.009Z,5739.00
2023-07-25T07:54:24.953Z,5330.00
2023-07-25T07:55:24.964Z,5801.00
2023-07-25T07:56:27.282Z,6792.00
2023-07-25T07:57:24.925Z,6521.00
2023-07-25T07:58:24.952Z,5900.00
2023-07-25T07:59:24.927Z,5657.00
2023-07-25T08:00:24.940Z,7036.00
2023-07-25T08:01:24.963Z,7677.00
2023-07-25T08:02:24.953Z,7411.00
2023-07-25T08:03:24.888Z,7638.00
2023-07-25T08:04:24.869Z,7859.00
2023-07-25T08:05:24.875Z,7155.00
2023-07-25T08:06:24.860Z,7450.00
2023-07-25T08:07:24.845Z,7476.00
2023-07-25T08:08:24.822Z,7317.00
2023-07-25T08:09:24.828Z,7343.00
2023-07-25T08:10:24.813Z,6872.00
2023-07-25T08:11:24.783Z,7158.00
2023-07-25T08:12:24.802Z,7066.00
2023-07-25T08:13:24.751Z,8357.00
2023-07-25T08:14:24.764Z,8398.00
2023-07-25T08:15:24.741Z,8288.00
2023-07-25T08:16:25.981Z,6798.00
2023-07-25T08:17:24.753Z,5739.00
2023-07-25T08:18:24.720Z,7843.00
2023-07-25T08:19:24.700Z,8607.00
2023-07-25T08:20:24.701Z,9031.00
2023-07-25T08:21:24.668Z,9404.00
2023-07-25T08:22:24.672Z,8731.00
2023-07-25T08:23:24.674Z,9150.00
2023-07-25T08:24:24.663Z,8215.00
2023-07-25T08:25:24.650Z,8254.00
2023-07-25T08:26:24.625Z,7611.00
2023-07-25T08:27:24.633Z,8168.00
2023-07-25T08:28:24.588Z,8110.00
2023-07-25T08:29:24.585Z,7509.00
2023-07-25T08:30:24.615Z,6974.00
2023-07-25T08:31:24.628Z,6646.00
2023-07-25T08:32:24.607Z,6573.00
2023-07-25T08:33:24.549Z,6051.00
2023-07-25T08:34:24.532Z,5755.00
2023-07-25T08:35:24.548Z,5900.00
2023-07-25T08:36:24.528Z,6263.00
2023-07-25T08:37:24.516Z,6219.00
2023-07-25T08:38:24.486Z,6447.00
2023-07-25T08:39:24.482Z,7374.00
2023-07-25T08:40:24.507Z,8579.00
2023-07-25T08:41:24.464Z,9220.00
2023-07-25T08:42:24.454Z,8592.00
2023-07-25T08:43:24.436Z,9279.00
2023-07-25T08:44:24.435Z,9425.00
2023-07-25T08:45:24.403Z,10206.00
2023-07-25T08:46:24.470Z,10037.00
2023-07-25T08:47:24.439Z,10370.00
2023-07-25T08:48:26.159Z,9744.00
2023-07-25T08:49:24.374Z,9536.00
2023-07-25T08:50:24.374Z,8683.00
2023-07-25T08:51:24.370Z,8097.00
2023-07-25T08:52:24.345Z,7488.00
2023-07-25T08:53:24.343Z,6292.00
2023-07-25T08:54:24.317Z,6720.00
2023-07-25T08:55:24.325Z,7327.00
2023-07-25T08:56:24.295Z,8026.00
2023-07-25T08:57:24.307Z,7824.00
2023-07-25T08:58:24.288Z,7730.00
2023-07-25T08:59:24.270Z,7334.00
2023-07-25T09:00:24.273Z,6616.00
2023-07-25T09:01:24.275Z,5876.00
2023-07-25T09:02:24.294Z,4914.00
2023-07-25T09:03:24.332Z,5599.00
2023-07-25T09:04:24.213Z,5184.00
2023-07-25T09:05:24.215Z,4879.00
2023-07-25T09:06:24.184Z,4560.00
2023-07-25T09:07:24.203Z,4701.00
2023-07-25T09:08:24.173Z,5366.00
2023-07-25T09:09:24.189Z,5440.00
2023-07-25T09:10:24.182Z,5818.00
2023-07-25T09:11:24.155Z,5566.00
2023-07-25T09:12:24.120Z,5634.00
2023-07-25T09:13:24.126Z,6428.00
2023-07-25T09:14:24.103Z,7235.00
2023-07-25T09:15:24.113Z,4902.00
2023-07-25T09:16:24.100Z,5433.00
2023-07-25T09:17:24.067Z,6112.00
2023-07-25T09:18:24.050Z,7486.00
2023-07-25T09:19:24.085Z,7463.00
2023-07-25T09:20:24.029Z,7226.00
2023-07-25T09:21:24.053Z,7008.00
2023-07-25T09:22:24.005Z,8049.00
2023-07-25T09:23:24.007Z,8159.00
2023-07-25T09:24:24.025Z,9176.00
2023-07-25T09:25:24.012Z,9403.00
2023-07-25T09:26:24.006Z,9146.00
2023-07-25T09:27:23.966Z,8942.00
2023-07-25T09:28:23.964Z,8072.00
2023-07-25T09:29:23.950Z,7226.00
2023-07-25T09:30:23.943Z,7088.00
2023-07-25T09:31:23.942Z,8178.00
2023-07-25T09:32:24.015Z,8200.00
2023-07-25T09:33:23.928Z,7410.00
2023-07-25T09:34:23.888Z,7708.00
2023-07-25T09:35:23.877Z,7523.00
2023-07-25T09:36:23.865Z,8082.00
2023-07-25T09:37:23.883Z,8945.00
2023-07-25T09:38:23.889Z,9317.00
2023-07-25T09:39:23.856Z,9867.00
2023-07-25T09:40:23.838Z,9816.00
2023-07-25T09:41:23.813Z,9082.00
2023-07-25T09:42:23.815Z,9061.00
2023-07-25T09:43:23.817Z,9428.00
2023-07-25T09:44:23.798Z,9186.00
2023-07-25T09:45:23.775Z,8851.00
2023-07-25T09:46:23.804Z,8896.00
2023-07-25T09:47:23.861Z,9000.00
2023-07-25T09:48:23.820Z,8987.00
2023-07-25T09:49:23.743Z,9072.00
2023-07-25T09:50:23.706Z,9643.00
2023-07-25T09:51:23.701Z,10007.00
2023-07-25T09:52:23.711Z,10188.00
2023-07-25T09:53:23.715Z,10657.00
2023-07-25T09:54:23.708Z,10969.00
2023-07-25T09:55:23.668Z,11151.00
2023-07-25T09:56:23.676Z,11471.00
2023-07-25T09:57:23.698Z,11063.00
2023-07-25T09:58:23.639Z,11398.00
2023-07-25T09:59:23.638Z,11346.00
2023-07-25T10:00:23.637Z,10964.00
2023-07-25T10:01:23.627Z,10788.00
2023-07-25T10:02:23.619Z,10605.00
2023-07-25T10:03:23.651Z,10553.00
2023-07-25T10:04:23.580Z,10591.00
2023-07-25T10:05:23.566Z,10504.00
2023-07-25T10:06:23.620Z,10076.00
2023-07-25T10:07:23.549Z,10728.00
2023-07-25T10:08:23.540Z,9989.00
2023-07-25T10:09:23.531Z,9978.00
2023-07-25T10:10:23.501Z,10205.00
2023-07-25T10:11:23.505Z,10188.00
2023-07-25T10:12:23.494Z,10009.00
2023-07-25T10:13:23.461Z,9850.00
2023-07-25T10:14:23.447Z,9715.00
2023-07-25T10:15:23.476Z,9991.00
2023-07-25T10:16:23.448Z,9503.00
2023-07-25T10:17:23.487Z,9040.00
2023-07-25T10:18:23.426Z,8960.00
2023-07-25T10:19:23.415Z,8002.00
2023-07-25T10:20:23.448Z,8089.00
2023-07-25T10:21:23.376Z,8451.00
2023-07-25T10:22:23.367Z,9281.00
2023-07-25T10:23:23.372Z,9190.00
2023-07-25T10:24:23.437Z,9017.00
2023-07-25T10:25:35.601Z,9893.00
2023-07-25T10:26:44.368Z,9355.00
2023-07-25T10:27:23.320Z,9112.00
2023-07-25T10:28:52.919Z,8122.00
2023-07-25T10:29:23.298Z,8761.00
2023-07-25T10:30:23.301Z,9458.00
2023-07-25T10:31:23.338Z,8095.00
2023-07-25T10:32:23.289Z,8780.00
2023-07-25T10:33:23.288Z,9349.00
2023-07-25T10:34:23.237Z,9019.00
2023-07-25T10:35:23.245Z,9318.00
2023-07-25T10:36:23.245Z,10249.00
2023-07-25T10:37:23.243Z,8066.00
2023-07-25T10:38:23.209Z,8480.00
2023-07-25T10:39:23.190Z,6880.00
2023-07-25T10:40:23.170Z,6944.00
2023-07-25T10:41:23.176Z,6092.00
2023-07-25T10:42:23.164Z,6273.00
2023-07-25T10:43:23.201Z,5841.00
2023-07-25T10:44:23.145Z,5586.00
2023-07-25T10:45:23.123Z,6151.00
2023-07-25T10:46:23.163Z,6837.00
2023-07-25T10:47:23.117Z,6600.00
2023-07-25T10:48:23.119Z,6665.00
2023-07-25T10:49:23.078Z,6906.00
2023-07-25T10:50:23.081Z,8360.00
2023-07-25T10:51:23.085Z,9466.00
2023-07-25T10:52:23.066Z,9499.00
2023-07-25T10:53:23.221Z,9335.00
2023-07-25T10:54:23.051Z,9948.00
2023-07-25T10:55:23.022Z,9709.00
2023-07-25T10:56:23.045Z,9585.00
2023-07-25T10:57:23.013Z,9561.00
2023-07-25T10:58:22.995Z,9628.00
2023-07-25T10:59:22.987Z,9850.00
2023-07-25T11:00:22.967Z,9706.00
2023-07-25T11:01:22.959Z,9084.00
2023-07-25T11:02:22.987Z,8008.00
2023-07-25T11:03:22.948Z,6903.00
2023-07-25T11:04:22.988Z,6114.00
2023-07-25T11:05:22.919Z,5895.00
2023-07-25T11:06:22.901Z,5973.00
2023-07-25T11:07:22.902Z,5770.00
2023-07-25T11:08:22.872Z,5858.00
2023-07-25T11:09:22.886Z,6701.00
2023-07-25T11:10:22.881Z,7061.00
2023-07-25T11:11:22.846Z,6872.00
2023-07-25T11:12:22.855Z,7267.00
2023-07-25T11:13:22.851Z,7826.00
2023-07-25T11:14:22.834Z,7581.00
2023-07-25T11:15:36.445Z,6897.00
2023-07-25T11:16:22.854Z,5895.00
2023-07-25T11:17:22.814Z,5357.00
2023-07-25T11:18:22.787Z,6174.00
2023-07-25T11:19:22.811Z,5997.00
2023-07-25T11:20:22.776Z,4810.00
2023-07-25T11:21:22.775Z,5092.00
2023-07-25T11:22:22.736Z,5265.00
2023-07-25T11:23:22.740Z,5092.00
2023-07-25T11:24:22.896Z,5223.00
2023-07-25T11:25:22.713Z,5498.00
2023-07-25T11:26:22.736Z,5497.00
2023-07-25T11:27:22.692Z,5173.00
2023-07-25T11:28:22.706Z,4832.00
2023-07-25T11:29:22.675Z,4911.00
2023-07-25T11:30:22.661Z,5672.00
2023-07-25T11:31:22.801Z,4881.00
2023-07-25T11:32:22.715Z,4574.00
2023-07-25T11:33:22.662Z,6377.00
2023-07-25T11:34:22.638Z,5503.00
2023-07-25T11:35:22.601Z,4949.00
2023-07-25T11:36:22.612Z,4386.00
2023-07-25T11:37:22.590Z,5493.00
2023-07-25T11:38:22.570Z,4631.00
2023-07-25T11:39:22.548Z,5027.00
2023-07-25T11:40:22.590Z,5787.00
2023-07-25T11:41:22.575Z,5203.00
2023-07-25T11:42:22.557Z,5647.00
2023-07-25T11:43:22.541Z,6021.00
2023-07-25T11:44:22.523Z,7187.00
2023-07-25T11:45:22.490Z,7543.00
2023-07-25T11:46:22.561Z,7431.00
2023-07-25T11:47:22.473Z,8069.00
2023-07-25T11:48:22.480Z,7791.00
2023-07-25T11:49:35.937Z,7542.00
2023-07-25T11:50:27.518Z,6696.00
2023-07-25T11:51:22.493Z,7547.00
2023-07-25T11:52:22.429Z,6811.00
2023-07-25T11:53:22.463Z,7708.00
2023-07-25T11:54:22.412Z,7439.00
2023-07-25T11:55:22.438Z,7261.00
2023-07-25T11:56:22.410Z,6589.00
2023-07-25T11:57:22.402Z,6019.00
2023-07-25T11:58:22.411Z,5692.00
2023-07-25T11:59:22.356Z,5295.00
2023-07-25T12:00:22.388Z,5429.00
2023-07-25T12:01:22.411Z,5562.00
2023-07-25T12:02:30.132Z,5743.00
2023-07-25T12:03:22.324Z,5741.00
2023-07-25T12:04:22.391Z,5322.00
2023-07-25T12:05:28.908Z,5220.00
2023-07-25T12:06:28.884Z,4865.00
2023-07-25T12:07:22.560Z,4603.00
2023-07-25T12:08:22.284Z,5491.00
2023-07-25T12:09:28.839Z,5852.00
2023-07-25T12:10:22.247Z,6039.00
2023-07-25T12:11:22.244Z,5983.00
2023-07-25T12:12:22.250Z,5868.00
2023-07-25T12:13:22.226Z,6703.00
2023-07-25T12:14:22.195Z,7565.00
2023-07-25T12:15:22.195Z,7294.00
2023-07-25T12:16:22.194Z,7852.00
2023-07-25T12:17:22.203Z,7991.00
2023-07-25T12:18:22.184Z,7622.00
2023-07-25T12:19:22.175Z,6060.00
2023-07-25T12:20:22.162Z,5461.00
2023-07-25T12:21:22.128Z,5194.00
2023-07-25T12:22:22.141Z,5517.00
2023-07-25T12:23:22.117Z,5953.00